Time;durP1;ratioP1;P1;durP2;ratioP2;P2;SDS_P1;SDS_P2;PMS_P1;PMS_P2;Temp;Humidity;BMP_temperature;BMP_pressure;BME280_temperature;BME280_humidity;BME280_pressure;Samples;Min_cycle;Max_cycle;Signal;HPM_P1;HPM_P2
2022/05/16 04:28:36;;;;;;;;;;;;;;;17.45;100.00;98616.56;5991404;23;19978;31
2022/05/16 04:31:03;;;;;;;;;;;;;;;17.66;100.00;98608.44;4900818;29;19968;-71
2022/05/16 04:33:33;;;;;;;;;;;;;;;18.00;100.00;98604.41;4903714;29;19964;-71
2022/05/16 04:36:00;;;;;;;;;;;;;;;18.30;100.00;98615.44;4885455;29;19945;-71
2022/05/16 04:38:28;;;;;;;;;;;;;;;18.66;100.00;98618.19;4885326;29;19958;-71
2022/05/16 04:43:41;;;;;;;;;;;;;;;19.49;100.00;98619.94;4885260;29;19950;-71
2022/05/16 04:46:08;;;;;;;;;;;;;;;19.83;100.00;98627.81;4885315;29;19960;-71
2022/05/16 04:48:36;;;;;;;;;;;;;;;20.05;100.00;98620.25;4885731;29;20076;-71
2022/05/16 04:51:03;;;;;;;;;;;;;;;20.50;100.00;98624.91;4885452;29;20295;-71
2022/05/16 04:53:30;;;;;;;;;;;;;;;20.79;100.00;98625.53;4885359;29;20000;-72
2022/05/16 04:55:58;;;;;;;;;;;;;;;21.22;100.00;98631.34;4884256;29;19956;-72
2022/05/16 04:58:25;;;;;;;;;;;;;;;21.50;100.00;98633.16;4884954;29;19952;-72
2022/05/16 05:00:52;;;;;;;;;;;;;;;21.92;100.00;98641.34;4885483;29;19957;-70
2022/05/16 05:03:20;;;;;;;;;;;;;;;22.47;99.01;98639.56;4885084;29;19953;-70
2022/05/16 05:05:47;;;;;;;;;;;;;;;22.51;96.99;98646.69;4885331;29;19953;-70
2022/05/16 05:08:14;;;;;;;;;;;;;;;22.97;94.19;98653.31;4900587;29;20373;-70
2022/05/16 05:16:17;;;;;;;;;;;;;;;24.10;85.32;98659.69;4903155;29;20260;-70
2022/05/16 05:18:45;;;;;;;;;;;;;;;24.22;83.65;98664.41;4902907;29;19950;-70
2022/05/16 05:21:12;;;;;;;;;;;;;;;24.43;81.31;98665.44;4902495;29;19951;-70
2022/05/16 05:23:40;;;;;;;;;;;;;;;24.71;80.63;98670.56;4903309;29;19951;-70
2022/05/16 05:26:09;;;;;;;;;;;;;;;24.83;80.18;98667.97;4902084;29;19985;-70
2022/05/16 05:28:37;;;;;;;;;;;;;;;24.94;77.21;98668.25;4902296;29;20361;-70
2022/05/16 05:31:09;;;;;;;;;;;;;;;24.82;78.28;98690.06;4903080;29;20236;-70
2022/05/16 05:33:36;;;;;;;;;;;;;;;24.41;78.77;98680.22;4890782;29;19955;-70
2022/05/16 05:36:03;;;;;;;;;;;;;;;23.97;82.49;98690.47;4896581;29;19984;-72
2022/05/16 05:38:30;;;;;;;;;;;;;;;23.73;83.19;98681.78;4900284;29;20254;-72
2022/05/16 05:40:58;;;;;;;;;;;;;;;23.36;86.40;98678.13;4901400;29;20442;-70
2022/05/16 05:43:25;;;;;;;;;;;;;;;23.19;87.53;98673.97;4902059;29;19996;-70
2022/05/16 05:45:52;;;;;;;;;;;;;;;23.07;89.22;98668.41;4902405;29;19956;-71
2022/05/16 05:48:23;;;;;;;;;;;;;;;22.85;90.70;98675.03;4902032;29;20243;-70
2022/05/16 05:50:51;;;;;;;;;;;;;;;22.68;93.36;98672.91;4902381;29;19948;-71
2022/05/16 05:53:19;;;;;;;;;;;;;;;22.56;95.04;98671.72;4902356;29;19957;-71
2022/05/16 05:55:47;;;;;;;;;;;;;;;22.60;94.17;98672.38;4901594;29;19965;-71
2022/05/16 05:58:15;;;;;;;;;;;;;;;22.60;94.93;98678.06;4902398;29;19961;-71
2022/05/16 06:00:43;;;;;;;;;;;;;;;22.56;95.51;98676.63;4900979;29;19958;-72
2022/05/16 06:03:10;;;;;;;;;;;;;;;22.52;96.82;98673.91;4901517;29;19947;-71
2022/05/16 06:05:37;;;;;;;;;;;;;;;22.48;97.04;98681.03;4900601;29;19949;-71
2022/05/16 06:08:04;;;;;;;;;;;;;;;22.54;98.25;98674.25;4901990;29;19955;-71
2022/05/16 06:10:32;;;;;;;;;;;;;;;22.56;97.04;98682.34;4890934;29;19964;-71
2022/05/16 06:13:02;;;;;;;;;;;;;;;22.45;97.56;98684.84;4898996;29;20239;-71
2022/05/16 06:15:29;;;;;;;;;;;;;;;22.48;98.58;98687.53;4902079;29;19968;-71
2022/05/16 06:17:56;;;;;;;;;;;;;;;22.47;95.98;98691.63;4900963;29;20249;-72
2022/05/16 06:20:26;;;;;;;;;;;;;;;22.52;95.45;98690.25;4901296;29;20347;-72
2022/05/16 06:22:54;;;;;;;;;;;;;;;22.50;95.33;98693.53;4902435;29;19962;-72
2022/05/16 06:25:33;;;;;;;;;;;;;;;22.53;95.73;98701.16;4901540;29;19980;-72
2022/05/16 06:28:12;;;;;;;;;;;;;;;22.47;94.17;98700.19;4898602;29;19974;-71
2022/05/16 06:30:41;;;;;;;;;;;;;;;22.55;93.25;98706.38;4899973;29;20640;-71
2022/05/16 06:33:08;;;;;;;;;;;;;;;22.65;93.31;98702.34;4899150;29;19946;-71
2022/05/16 06:35:36;;;;;;;;;;;;;;;22.69;92.24;98712.34;4900503;29;19971;-71
2022/05/16 06:38:16;;;;;;;;;;;;;;;22.77;92.04;98705.09;4900279;29;19949;-72
2022/05/16 06:40:46;;;;;;;;;;;;;;;22.82;91.13;98704.47;4901471;29;19953;-72
2022/05/16 06:43:14;;;;;;;;;;;;;;;22.85;91.01;98700.69;4901448;29;20254;-71
2022/05/16 06:45:41;;;;;;;;;;;;;;;22.77;90.37;98710.00;4883324;29;19951;-71
2022/05/16 06:48:09;;;;;;;;;;;;;;;22.86;89.43;98707.97;4900654;29;20259;-71
2022/05/16 06:50:37;;;;;;;;;;;;;;;22.90;89.54;98710.69;4896306;29;19963;-71
2022/05/16 06:53:04;;;;;;;;;;;;;;;22.98;88.71;98709.13;4900907;29;19959;-71
2022/05/16 06:55:31;;;;;;;;;;;;;;;23.06;87.04;98709.63;4899405;29;19995;-71
2022/05/16 06:57:59;;;;;;;;;;;;;;;23.13;86.44;98704.41;4900252;29;20246;-71
2022/05/16 07:00:26;;;;;;;;;;;;;;;23.18;85.57;98712.31;4900818;29;19951;-71
2022/05/16 07:02:54;;;;;;;;;;;;;;;23.26;85.49;98710.75;4901418;29;19962;-71
2022/05/16 07:05:41;;;;;;;;;;;;;;;23.33;86.13;98712.50;4900546;29;19949;-72
2022/05/16 07:08:08;;;;;;;;;;;;;;;23.41;85.53;98708.91;4900760;29;19950;-72
2022/05/16 07:10:36;;;;;;;;;;;;;;;23.52;85.56;98717.78;4901147;29;19952;-72
2022/05/16 07:13:03;;;;;;;;;;;;;;;23.49;88.22;98709.38;4900988;29;19960;-72
2022/05/16 07:15:31;;;;;;;;;;;;;;;23.58;87.91;98708.56;4901053;29;20273;-72
2022/05/16 07:17:59;;;;;;;;;;;;;;;23.66;88.43;98707.78;4900767;29;19958;-72
2022/05/16 07:20:27;;;;;;;;;;;;;;;23.67;87.80;98709.38;4900159;29;19960;-71
2022/05/16 07:22:58;;;;;;;;;;;;;;;23.72;90.15;98703.03;4901232;29;19949;-72
2022/05/16 07:25:26;;;;;;;;;;;;;;;23.83;88.44;98700.47;4900596;29;19957;-72
2022/05/16 07:27:57;;;;;;;;;;;;;;;23.85;86.22;98706.50;4900549;29;19956;-72
2022/05/16 07:30:34;;;;;;;;;;;;;;;23.94;88.71;98703.63;4900399;29;19986;-72
2022/05/16 07:33:02;;;;;;;;;;;;;;;24.07;91.45;98701.44;4899468;29;19947;-72
2022/05/16 07:35:31;;;;;;;;;;;;;;;24.10;90.27;98699.69;4898812;29;19972;-72
2022/05/16 07:37:58;;;;;;;;;;;;;;;24.06;91.73;98702.66;4900186;29;19959;-72
2022/05/16 07:40:28;;;;;;;;;;;;;;;24.17;91.82;98699.34;4900023;29;19948;-72
2022/05/16 07:42:55;;;;;;;;;;;;;;;24.29;91.91;98700.41;4900850;29;20327;-72
2022/05/16 07:45:23;;;;;;;;;;;;;;;24.36;90.45;98700.06;4900947;29;19954;-72
2022/05/16 07:47:51;;;;;;;;;;;;;;;24.34;86.96;98699.75;4890314;29;19953;-71
2022/05/16 07:50:21;;;;;;;;;;;;;;;24.43;87.98;98691.94;4885425;29;19947;-71
2022/05/16 07:52:49;;;;;;;;;;;;;;;24.38;89.87;98698.31;4900256;29;19960;-71
2022/05/16 07:55:18;;;;;;;;;;;;;;;24.44;87.08;98687.03;4903361;29;20000;-71
2022/05/16 07:57:45;;;;;;;;;;;;;;;24.53;89.17;98689.84;4901216;29;19949;-72
2022/05/16 08:00:13;;;;;;;;;;;;;;;24.52;89.16;98688.28;4897493;29;19966;-71
2022/05/16 08:02:40;;;;;;;;;;;;;;;24.67;90.20;98689.94;4901145;29;19949;-71
2022/05/16 08:05:09;;;;;;;;;;;;;;;24.77;85.74;98688.66;4899393;29;20334;-71
2022/05/16 08:10:29;;;;;;;;;;;;;;;24.88;85.71;98688.13;4903917;29;19955;-72
2022/05/16 08:10:29;;;;;;;;;;;;;;;24.96;87.01;98692.22;4903803;29;19966;-71
2022/05/16 08:13:01;;;;;;;;;;;;;;;25.05;85.59;98686.44;4885236;29;19943;-71
2022/05/16 08:15:29;;;;;;;;;;;;;;;25.05;86.15;98689.28;4884238;29;19972;-71
2022/05/16 08:17:57;;;;;;;;;;;;;;;25.20;87.18;98692.22;4885121;29;19954;-71
2022/05/16 08:20:25;;;;;;;;;;;;;;;25.28;88.61;98688.53;4885121;29;19958;-72
2022/05/16 08:22:53;;;;;;;;;;;;;;;25.34;86.58;98692.28;4895070;29;19944;-71
2022/05/16 08:25:20;;;;;;;;;;;;;;;25.42;82.58;98692.72;4903732;29;20228;-71
2022/05/16 08:27:50;;;;;;;;;;;;;;;25.43;83.80;98700.78;4904078;29;19953;-70
2022/05/16 08:30:21;;;;;;;;;;;;;;;25.48;83.60;98699.34;4904053;29;20362;-72
2022/05/16 08:32:48;;;;;;;;;;;;;;;25.56;83.36;98706.31;4903091;29;19955;-72
2022/05/16 08:35:17;;;;;;;;;;;;;;;25.52;84.24;98702.84;4897126;29;20231;-71
2022/05/16 08:40:49;;;;;;;;;;;;;;;25.64;86.72;98706.72;4898592;29;19956;-71
2022/05/16 08:43:17;;;;;;;;;;;;;;;25.72;86.66;98710.78;4899693;29;19955;-71
2022/05/16 08:45:50;;;;;;;;;;;;;;;25.85;83.50;98709.22;4900216;29;19949;-71
2022/05/16 08:48:17;;;;;;;;;;;;;;;25.80;83.94;98706.28;4898617;29;20523;-71
2022/05/16 08:50:50;;;;;;;;;;;;;;;25.86;85.49;98710.81;4902980;29;19970;-71
2022/05/16 08:53:23;;;;;;;;;;;;;;;25.90;85.83;98714.28;4902946;29;19956;-71
2022/05/16 08:55:52;;;;;;;;;;;;;;;25.92;86.31;98719.53;4902923;29;20256;-71
2022/05/16 08:58:33;;;;;;;;;;;;;;;26.01;88.41;98714.50;4903061;29;19948;-71
2022/05/16 09:01:02;;;;;;;;;;;;;;;25.93;89.45;98710.44;4903123;29;19949;-71
2022/05/16 09:04:08;;;;;;;;;;;;;;;26.07;87.43;98711.72;4902887;29;19947;-71
2022/05/16 09:06:56;;;;;;;;;;;;;;;26.17;85.77;98723.91;4844963;29;19953;-71
2022/05/16 09:09:35;;;;;;;;;;;;;;;26.20;86.19;98720.88;4845233;29;19947;-71
2022/05/16 09:12:03;;;;;;;;;;;;;;;26.18;87.50;98722.66;4886359;29;20259;-71
2022/05/16 09:14:33;;;;;;;;;;;;;;;26.25;91.28;98723.03;4902727;29;19950;-71
2022/05/16 09:17:02;;;;;;;;;;;;;;;26.17;86.50;98713.25;4902058;29;19967;-71
2022/05/16 09:19:48;;;;;;;;;;;;;;;25.85;88.48;98719.91;4902602;29;19958;-71
2022/05/16 09:22:24;;;;;;;;;;;;;;;25.92;94.70;98719.53;4893628;29;19960;-72
2022/05/16 09:24:55;;;;;;;;;;;;;;;25.88;93.47;98713.97;4902093;29;19947;-71
2022/05/16 09:30:18;;;;;;;;;;;;;;;26.05;94.55;98703.63;4902875;29;19975;-71
2022/05/16 09:32:50;;;;;;;;;;;;;;;26.12;92.94;98702.47;4902279;29;19958;-71
2022/05/16 09:35:37;;;;;;;;;;;;;;;26.18;94.00;98700.50;4902120;29;20425;-71
2022/05/16 09:38:05;;;;;;;;;;;;;;;26.27;91.46;98705.34;4895871;29;19956;-71
2022/05/16 09:40:34;;;;;;;;;;;;;;;26.40;94.87;98703.78;4902208;29;19952;-71
2022/05/16 09:43:06;;;;;;;;;;;;;;;26.43;92.71;98704.84;4902286;29;19948;-71
2022/05/16 09:45:34;;;;;;;;;;;;;;;26.43;89.32;98704.84;4901986;29;19950;-71
2022/05/16 09:48:13;;;;;;;;;;;;;;;26.46;90.71;98704.63;4901954;29;19956;-72
2022/05/16 09:50:41;;;;;;;;;;;;;;;26.44;95.65;98700.69;4890150;29;19944;-72
2022/05/16 09:53:11;;;;;;;;;;;;;;;26.49;100.00;98695.06;4885534;29;20239;-71
2022/05/16 09:55:48;;;;;;;;;;;;;;;26.18;91.04;98699.72;4894806;29;19970;-72
2022/05/16 09:58:19;;;;;;;;;;;;;;;26.17;90.64;98701.78;4883509;29;19952;-72
2022/05/16 10:00:57;;;;;;;;;;;;;;;26.37;93.97;98693.28;4890872;29;19956;-72
2022/05/16 10:03:30;;;;;;;;;;;;;;;26.37;97.92;98693.28;4888515;29;19954;-71
2022/05/16 10:06:02;;;;;;;;;;;;;;;26.41;92.79;98691.00;4915317;29;19959;-71
2022/05/16 10:08:39;;;;;;;;;;;;;;;26.28;89.65;98693.41;4920282;29;19949;-71
2022/05/16 10:11:18;;;;;;;;;;;;;;;26.41;91.57;98693.09;4918244;29;19956;-72
2022/05/16 10:13:45;;;;;;;;;;;;;;;26.39;93.37;98678.44;4902489;29;20327;-72
2022/05/16 10:16:14;;;;;;;;;;;;;;;26.53;96.88;98687.03;4901656;29;19975;-72
2022/05/16 10:18:47;;;;;;;;;;;;;;;26.40;87.94;98682.91;4899263;29;19959;-72
2022/05/16 10:21:21;;;;;;;;;;;;;;;26.13;89.55;98669.66;4901044;29;19954;-72
2022/05/16 10:23:48;;;;;;;;;;;;;;;26.49;95.70;98669.25;4901599;29;20314;-72
2022/05/16 10:26:17;;;;;;;;;;;;;;;26.38;90.18;98669.06;4901874;29;19953;-72
2022/05/16 10:28:46;;;;;;;;;;;;;;;26.41;98.92;98662.31;4901295;29;20242;-72
2022/05/16 10:34:07;;;;;;;;;;;;;;;26.39;86.49;98666.97;4901485;29;19955;-72
2022/05/16 10:36:35;;;;;;;;;;;;;;;26.39;92.21;98667.75;4894949;29;19971;-71
2022/05/16 10:39:26;;;;;;;;;;;;;;;26.29;89.43;98662.66;4882739;29;19953;-72
2022/05/16 10:42:15;;;;;;;;;;;;;;;26.28;91.00;98667.59;4885019;29;19950;-72
2022/05/16 10:44:45;;;;;;;;;;;;;;;26.54;83.33;98673.47;4901258;29;19948;-72
2022/05/16 10:47:35;;;;;;;;;;;;;;;26.51;87.66;98665.84;4901587;29;20251;-71
2022/05/16 10:50:02;;;;;;;;;;;;;;;26.48;89.35;98664.78;4901220;29;19951;-72
2022/05/16 10:52:34;;;;;;;;;;;;;;;26.51;89.42;98655.19;4900884;29;20538;-72
2022/05/16 10:55:01;;;;;;;;;;;;;;;26.62;99.57;98652.50;4901777;29;19950;-72
2022/05/16 10:57:31;;;;;;;;;;;;;;;26.64;94.10;98654.88;4901174;29;19979;-72
2022/05/16 11:00:07;;;;;;;;;;;;;;;26.54;91.09;98657.06;4900882;29;20404;-72
2022/05/16 11:02:35;;;;;;;;;;;;;;;26.68;78.78;98653.38;4900863;29;19952;-72
2022/05/16 11:05:02;;;;;;;;;;;;;;;26.68;79.43;98641.88;4900952;29;19954;-72
2022/05/16 11:07:35;;;;;;;;;;;;;;;26.67;89.93;98634.59;4896052;29;19952;-72
2022/05/16 11:10:11;;;;;;;;;;;;;;;26.62;88.26;98641.03;4900856;29;19965;-72
2022/05/16 11:12:38;;;;;;;;;;;;;;;26.51;100.00;98640.84;4900747;29;19963;-72
2022/05/16 11:15:14;;;;;;;;;;;;;;;26.43;88.42;98644.63;4900521;29;20261;-72
2022/05/16 11:17:50;;;;;;;;;;;;;;;26.49;80.90;98642.63;4900953;29;20277;-72
2022/05/16 11:20:24;;;;;;;;;;;;;;;26.69;94.98;98639.81;4904832;29;19956;-72
2022/05/16 11:22:57;;;;;;;;;;;;;;;26.53;85.42;98635.41;4907365;29;19950;-72
2022/05/16 11:25:24;;;;;;;;;;;;;;;26.64;82.82;98641.31;4907044;29;19950;-72
2022/05/16 11:28:17;;;;;;;;;;;;;;;26.50;88.62;98622.06;4906830;29;19954;-72
2022/05/16 11:30:51;;;;;;;;;;;;;;;26.52;91.04;98624.44;4873502;29;19972;-72
2022/05/16 11:33:19;;;;;;;;;;;;;;;26.34;93.25;98616.03;4905693;29;19957;-72
2022/05/16 11:35:47;;;;;;;;;;;;;;;26.52;86.77;98613.75;4901505;29;20239;-72
2022/05/16 11:38:20;;;;;;;;;;;;;;;26.52;87.78;98608.00;4906167;29;19982;-72
2022/05/16 11:40:58;;;;;;;;;;;;;;;26.63;97.55;98616.00;4907675;29;20337;-72
2022/05/16 11:43:28;;;;;;;;;;;;;;;26.80;86.05;98613.41;4906882;29;19960;-72
2022/05/16 11:46:01;;;;;;;;;;;;;;;26.59;91.09;98618.28;4907304;29;20240;-72
2022/05/16 11:48:33;;;;;;;;;;;;;;;26.52;87.75;98601.47;4906734;29;20383;-72
2022/05/16 11:51:21;;;;;;;;;;;;;;;26.56;90.36;98602.84;4906711;29;20080;-72
2022/05/16 11:53:50;;;;;;;;;;;;;;;26.43;90.64;98593.81;4902174;29;19958;-72
2022/05/16 12:02:22;;;;;;;;;;;;;;;26.52;87.94;98585.06;4906944;29;19955;-72
2022/05/16 12:04:51;;;;;;;;;;;;;;;26.39;88.23;98573.13;4906578;29;19959;-72
2022/05/16 12:07:38;;;;;;;;;;;;;;;26.52;91.37;98584.28;4906653;29;19960;-72
2022/05/16 12:10:15;;;;;;;;;;;;;;;26.70;91.24;98564.72;4907266;29;19949;-72
2022/05/16 12:12:44;;;;;;;;;;;;;;;26.62;87.78;98572.19;4907005;29;19959;-72
2022/05/16 12:15:14;;;;;;;;;;;;;;;26.65;93.39;98561.78;4901969;29;20329;-72
2022/05/16 12:17:52;;;;;;;;;;;;;;;26.74;91.05;98561.66;4902423;29;20374;-71
2022/05/16 12:20:35;;;;;;;;;;;;;;;26.98;88.55;98547.09;4902436;29;19953;-71
2022/05/16 12:23:03;;;;;;;;;;;;;;;26.99;90.92;98552.34;4904918;29;19949;-71
2022/05/16 12:25:36;;;;;;;;;;;;;;;27.21;80.94;98554.69;4905292;29;19960;-71
2022/05/16 12:28:12;;;;;;;;;;;;;;;27.16;87.89;98550.47;4921204;29;19954;-72
2022/05/16 12:30:48;;;;;;;;;;;;;;;27.16;86.56;98543.94;4896936;29;19969;-72
2022/05/16 12:33:51;;;;;;;;;;;;;;;27.23;80.04;98537.75;4903563;29;19958;-71
2022/05/16 12:36:23;;;;;;;;;;;;;;;27.27;82.62;98544.84;4854961;29;19953;-72
2022/05/16 12:38:53;;;;;;;;;;;;;;;27.25;72.35;98543.78;4889721;29;19944;-72
2022/05/16 12:41:39;;;;;;;;;;;;;;;27.27;75.10;98541.19;4889751;29;20247;-72
2022/05/16 12:44:11;;;;;;;;;;;;;;;27.12;75.02;98538.41;4901424;29;19959;-71
2022/05/16 12:46:53;;;;;;;;;;;;;;;27.32;75.29;98529.75;4894020;29;19954;-71
2022/05/16 12:49:40;;;;;;;;;;;;;;;27.36;68.76;98529.56;4902808;29;19952;-72
2022/05/16 12:52:41;;;;;;;;;;;;;;;27.25;72.48;98523.69;4900518;29;19957;-71
2022/05/16 12:55:17;;;;;;;;;;;;;;;27.21;78.65;98511.63;4902075;29;19949;-72
2022/05/16 12:57:55;;;;;;;;;;;;;;;27.26;81.94;98510.91;4901309;29;20262;-72
2022/05/16 13:00:30;;;;;;;;;;;;;;;27.17;81.71;98508.97;4896744;29;19950;-72
2022/05/16 13:03:06;;;;;;;;;;;;;;;27.18;82.39;98504.81;4899687;29;19948;-71
2022/05/16 13:05:45;;;;;;;;;;;;;;;27.30;72.72;98506.50;4899077;29;19960;-71
2022/05/16 13:08:29;;;;;;;;;;;;;;;27.21;79.55;98503.03;4900372;29;19947;-72
2022/05/16 13:10:57;;;;;;;;;;;;;;;27.22;83.62;98493.88;4902180;29;19959;-72
2022/05/16 13:13:24;;;;;;;;;;;;;;;27.22;76.32;98490.22;4902385;29;19955;-71
2022/05/16 13:16:10;;;;;;;;;;;;;;;27.31;77.17;98490.09;4902328;29;19944;-71
2022/05/16 13:18:51;;;;;;;;;;;;;;;27.35;65.66;98490.63;4899530;29;19974;-72
2022/05/16 13:21:20;;;;;;;;;;;;;;;27.37;69.19;98488.03;4901638;29;20344;-72
2022/05/16 13:23:48;;;;;;;;;;;;;;;27.29;62.10;98484.06;4901159;29;19958;-72
2022/05/16 13:31:54;;;;;;;;;;;;;;;27.33;56.34;98476.00;4901480;29;19957;-71
2022/05/16 13:34:30;;;;;;;;;;;;;;;27.36;65.06;98475.00;4883275;29;19954;-71
2022/05/16 13:36:58;;;;;;;;;;;;;;;27.28;62.43;98482.47;4898535;29;19950;-71
2022/05/16 13:39:26;;;;;;;;;;;;;;;27.30;64.51;98471.25;4901066;29;19950;-71
2022/05/16 13:41:53;;;;;;;;;;;;;;;27.28;60.77;98468.13;4901443;29;19950;-71
2022/05/16 13:44:21;;;;;;;;;;;;;;;27.28;63.81;98465.25;4899948;29;19952;-71
2022/05/16 13:46:50;;;;;;;;;;;;;;;27.34;63.85;98455.38;4899255;29;19950;-71
2022/05/16 13:49:18;;;;;;;;;;;;;;;27.35;63.55;98461.91;4901510;29;19953;-72
2022/05/16 13:51:49;;;;;;;;;;;;;;;27.39;67.16;98455.97;4901894;29;19957;-72
2022/05/16 13:54:19;;;;;;;;;;;;;;;27.39;58.79;98456.75;4901947;29;20347;-71
2022/05/16 13:56:50;;;;;;;;;;;;;;;27.34;58.43;98451.72;4901841;29;20341;-71
2022/05/16 13:59:21;;;;;;;;;;;;;;;27.31;62.04;98455.63;4896893;29;19971;-71
2022/05/16 14:01:53;;;;;;;;;;;;;;;27.31;65.58;98456.38;4897701;29;20424;-71
2022/05/16 14:04:24;;;;;;;;;;;;;;;27.34;64.72;98449.63;4899783;29;20375;-71
2022/05/16 14:06:53;;;;;;;;;;;;;;;27.25;61.77;98458.44;4901323;29;19950;-71
2022/05/16 14:09:26;;;;;;;;;;;;;;;27.29;62.22;98446.72;4901122;29;20245;-71
2022/05/16 14:11:55;;;;;;;;;;;;;;;27.25;65.36;98452.69;4901415;29;19956;-71
2022/05/16 14:14:26;;;;;;;;;;;;;;;27.18;65.32;98446.59;4901252;29;19959;-71
2022/05/16 14:16:58;;;;;;;;;;;;;;;27.16;67.18;98449.19;4901399;29;19966;-71
2022/05/16 14:19:31;;;;;;;;;;;;;;;27.09;68.19;98441.03;4895526;29;19970;-71
2022/05/16 14:22:07;;;;;;;;;;;;;;;27.11;75.59;98447.84;4900922;29;19957;-71
2022/05/16 14:24:39;;;;;;;;;;;;;;;27.10;73.08;98437.66;4900867;29;19961;-71
2022/05/16 14:27:20;;;;;;;;;;;;;;;27.27;67.98;98441.47;4901205;29;19961;-71
2022/05/16 14:30:08;;;;;;;;;;;;;;;27.27;67.27;98443.56;4901253;29;20338;-71
2022/05/16 14:32:41;;;;;;;;;;;;;;;27.24;71.62;98448.22;4900769;29;19948;-71
2022/05/16 14:35:10;;;;;;;;;;;;;;;27.19;70.62;98442.44;4897839;29;19950;-71
2022/05/16 14:37:37;;;;;;;;;;;;;;;27.03;67.81;98440.97;4899843;29;19964;-71
2022/05/16 14:40:09;;;;;;;;;;;;;;;26.91;74.63;98442.16;4901000;29;20248;-71
2022/05/16 14:42:40;;;;;;;;;;;;;;;26.90;69.43;98445.53;4900663;29;19952;-71
2022/05/16 14:45:14;;;;;;;;;;;;;;;26.89;65.83;98447.63;4900912;29;19949;-71
2022/05/16 14:47:51;;;;;;;;;;;;;;;26.88;70.35;98439.50;4899928;29;19951;-71
2022/05/16 14:50:19;;;;;;;;;;;;;;;26.88;72.42;98448.88;4898890;29;19956;-71
2022/05/16 14:52:59;;;;;;;;;;;;;;;26.79;71.32;98449.06;4898801;29;19949;-71
2022/05/16 14:55:31;;;;;;;;;;;;;;;26.77;73.88;98440.16;4900411;29;19946;-71
2022/05/16 14:58:00;;;;;;;;;;;;;;;26.68;76.90;98441.06;4900703;29;19959;-71
2022/05/16 15:05:59;;;;;;;;;;;;;;;26.60;76.02;98437.06;4900527;29;19964;-71
2022/05/16 15:08:28;;;;;;;;;;;;;;;26.43;70.76;98436.09;4900553;29;20377;-71
2022/05/16 15:10:56;;;;;;;;;;;;;;;26.44;71.74;98440.50;4900686;29;19951;-71
2022/05/16 15:13:24;;;;;;;;;;;;;;;26.48;68.61;98446.81;4896864;29;19948;-71
2022/05/16 15:15:51;;;;;;;;;;;;;;;26.43;67.21;98436.09;4895021;29;19965;-71
2022/05/16 15:18:19;;;;;;;;;;;;;;;26.34;64.23;98444.81;4899653;29;20307;-71
2022/05/16 15:20:48;;;;;;;;;;;;;;;26.35;63.14;98454.19;4900198;29;19953;-71
2022/05/16 15:23:21;;;;;;;;;;;;;;;26.37;61.12;98448.75;4900191;29;19961;-71
2022/05/16 15:25:49;;;;;;;;;;;;;;;26.26;64.50;98446.53;4894956;29;20226;-71
2022/05/16 15:28:16;;;;;;;;;;;;;;;26.24;68.27;98449.09;4898489;29;19947;-71
2022/05/16 15:30:44;;;;;;;;;;;;;;;26.14;65.26;98456.25;4900280;29;19971;-71
2022/05/16 15:33:14;;;;;;;;;;;;;;;26.04;65.18;98463.38;4898962;29;19953;-71
2022/05/16 15:35:44;;;;;;;;;;;;;;;26.02;66.79;98457.34;4899831;29;20251;-71
2022/05/16 15:38:11;;;;;;;;;;;;;;;26.12;69.37;98458.81;4900410;29;19965;-71
2022/05/16 15:40:39;;;;;;;;;;;;;;;26.08;71.08;98463.97;4899900;29;19961;-71
2022/05/16 15:43:07;;;;;;;;;;;;;;;26.03;66.70;98461.78;4898711;29;19951;-71
2022/05/16 15:45:37;;;;;;;;;;;;;;;25.90;72.12;98455.59;4899178;29;20249;-71
2022/05/16 15:48:06;;;;;;;;;;;;;;;25.87;70.96;98459.47;4900028;29;19955;-71
2022/05/16 15:50:34;;;;;;;;;;;;;;;25.95;68.80;98470.00;4899679;29;19947;-71
2022/05/16 15:53:02;;;;;;;;;;;;;;;25.86;68.30;98461.56;4899928;29;19955;-71
2022/05/16 15:55:29;;;;;;;;;;;;;;;25.78;69.69;98459.56;4900270;29;20344;-71
2022/05/16 15:57:57;;;;;;;;;;;;;;;25.68;72.81;98450.31;4898736;29;19959;-71
2022/05/16 16:00:26;;;;;;;;;;;;;;;25.60;75.66;98452.03;4899346;29;19961;-71
2022/05/16 16:02:55;;;;;;;;;;;;;;;25.60;76.12;98452.03;4893782;29;19959;-71
2022/05/16 16:10:55;;;;;;;;;;;;;;;25.52;72.10;98450.03;4890913;29;19959;-71
2022/05/16 16:13:24;;;;;;;;;;;;;;;25.47;74.28;98447.88;4903875;29;19959;-71
2022/05/16 16:15:56;;;;;;;;;;;;;;;25.43;76.42;98445.19;4903643;29;19954;-71
2022/05/16 16:18:24;;;;;;;;;;;;;;;25.33;76.56;98447.34;4903271;29;19974;-71
2022/05/16 16:20:51;;;;;;;;;;;;;;;25.31;78.67;98441.31;4902854;29;19960;-71
2022/05/16 16:23:20;;;;;;;;;;;;;;;25.24;77.89;98443.78;4901908;29;19954;-71
2022/05/16 16:25:48;;;;;;;;;;;;;;;25.21;82.62;98436.97;4899996;29;19948;-71
2022/05/16 16:28:15;;;;;;;;;;;;;;;25.15;82.63;98444.69;4901842;29;19948;-71
2022/05/16 16:30:48;;;;;;;;;;;;;;;25.22;79.30;98438.56;4902638;29;19973;-71
2022/05/16 16:33:17;;;;;;;;;;;;;;;25.10;78.83;98445.38;4898970;29;19951;-71
2022/05/16 16:35:44;;;;;;;;;;;;;;;25.03;80.93;98445.78;4898842;29;19983;-71
2022/05/16 16:38:12;;;;;;;;;;;;;;;25.08;79.97;98444.28;4898379;29;19981;-71
2022/05/16 16:40:41;;;;;;;;;;;;;;;24.99;81.55;98447.25;4901056;29;20363;-71
2022/05/16 16:43:23;;;;;;;;;;;;;;;25.00;86.39;98445.97;4898574;29;19950;-71
2022/05/16 16:45:50;;;;;;;;;;;;;;;24.89;85.56;98443.69;4897167;29;19948;-71
2022/05/16 16:48:18;;;;;;;;;;;;;;;24.85;85.29;98443.06;4899909;29;19947;-71
2022/05/16 16:50:46;;;;;;;;;;;;;;;24.83;86.32;98439.91;4897971;29;20242;-71
2022/05/16 16:58:46;;;;;;;;;;;;;;;24.62;84.31;98441.03;4895255;29;19964;-71
2022/05/16 17:01:13;;;;;;;;;;;;;;;24.58;81.73;98449.78;4884319;29;19953;-71
2022/05/16 17:03:41;;;;;;;;;;;;;;;24.55;79.53;98450.00;4892598;29;19954;-71
2022/05/16 17:06:09;;;;;;;;;;;;;;;24.53;82.53;98449.66;4897077;29;19948;-71
2022/05/16 17:08:37;;;;;;;;;;;;;;;24.43;87.29;98448.19;4900885;29;19950;-71
2022/05/16 17:11:06;;;;;;;;;;;;;;;24.35;86.91;98447.75;4901321;29;19958;-71
2022/05/16 17:13:36;;;;;;;;;;;;;;;24.33;85.60;98438.09;4900549;29;19957;-72
2022/05/16 17:16:05;;;;;;;;;;;;;;;24.27;92.42;98437.16;4902058;29;20291;-72
2022/05/16 17:18:33;;;;;;;;;;;;;;;24.11;90.93;98444.88;4902353;29;19953;-71
2022/05/16 17:21:01;;;;;;;;;;;;;;;24.06;89.79;98450.47;4903238;29;19950;-71
2022/05/16 17:23:31;;;;;;;;;;;;;;;24.14;91.30;98460.25;4902543;29;20031;-71
2022/05/16 17:25:59;;;;;;;;;;;;;;;24.04;91.14;98456.66;4902991;29;20500;-71
2022/05/16 17:28:26;;;;;;;;;;;;;;;23.97;90.36;98462.72;4902251;29;20330;-71
2022/05/16 17:30:56;;;;;;;;;;;;;;;23.88;94.04;98462.78;4902456;29;19978;-71
2022/05/16 17:33:23;;;;;;;;;;;;;;;23.82;93.67;98458.19;4902602;29;19956;-71
2022/05/16 17:36:11;;;;;;;;;;;;;;;23.81;96.56;98463.13;4902994;29;19953;-71
2022/05/16 17:38:40;;;;;;;;;;;;;;;23.78;92.14;98463.28;4901584;29;19954;-71
2022/05/16 17:41:09;;;;;;;;;;;;;;;23.71;95.21;98458.72;4902080;29;19951;-71
2022/05/16 17:43:37;;;;;;;;;;;;;;;23.68;96.34;98468.25;4900251;29;20339;-71
2022/05/16 17:46:04;;;;;;;;;;;;;;;23.53;94.32;98476.72;4899136;29;19964;-71
2022/05/16 17:48:31;;;;;;;;;;;;;;;23.51;97.20;98476.41;4902201;29;20366;-71
2022/05/16 17:50:59;;;;;;;;;;;;;;;23.50;95.16;98479.72;4902009;29;19950;-71
2022/05/16 17:53:27;;;;;;;;;;;;;;;23.46;94.61;98481.97;4902624;29;19957;-71
2022/05/16 17:55:54;;;;;;;;;;;;;;;23.45;92.60;98488.97;4902446;29;19955;-71
2022/05/16 17:58:21;;;;;;;;;;;;;;;23.43;96.88;98492.28;4902447;29;19948;-71
2022/05/16 18:00:49;;;;;;;;;;;;;;;23.35;98.68;98493.09;4902446;29;19990;-71
2022/05/16 18:03:16;;;;;;;;;;;;;;;23.23;97.21;98494.84;4902481;29;19956;-71
2022/05/16 18:05:44;;;;;;;;;;;;;;;23.17;97.27;98498.81;4901685;29;19956;-71
2022/05/16 18:08:12;;;;;;;;;;;;;;;23.12;93.46;98494.53;4901511;29;19949;-71
2022/05/16 18:13:39;;;;;;;;;;;;;;;22.96;95.23;98505.50;4870365;29;19947;-71
2022/05/16 18:16:07;;;;;;;;;;;;;;;22.89;96.62;98501.69;4901768;29;19948;-71
2022/05/16 18:18:34;;;;;;;;;;;;;;;22.84;96.23;98505.19;4900057;29;19956;-71
2022/05/16 18:21:01;;;;;;;;;;;;;;;22.74;93.79;98517.06;4896577;29;19969;-71